createdAt,value
2023-03-13T00:03:47.869Z,978.50
2023-03-13T00:15:48.303Z,978.50
2023-03-13T00:27:48.759Z,978.22
2023-03-13T00:39:49.201Z,978.06
2023-03-13T00:51:49.693Z,977.85
2023-03-13T01:03:50.119Z,977.73
2023-03-13T01:15:50.605Z,977.67
2023-03-13T01:27:51.050Z,977.47
2023-03-13T01:39:51.463Z,977.44
2023-03-13T01:51:51.931Z,977.45
2023-03-13T02:03:52.362Z,977.36
2023-03-13T02:15:52.867Z,977.36
2023-03-13T02:27:53.286Z,977.43
2023-03-13T02:39:53.708Z,977.48
2023-03-13T02:51:54.187Z,977.43
2023-03-13T03:03:54.657Z,977.37
2023-03-13T03:15:55.091Z,977.48
2023-03-13T03:27:55.547Z,977.51
2023-03-13T03:39:55.992Z,977.57
2023-03-13T03:51:56.440Z,977.63
2023-03-13T04:03:56.896Z,977.54
2023-03-13T04:15:57.381Z,977.51
2023-03-13T04:27:57.810Z,977.47
2023-03-13T04:39:58.290Z,977.44
2023-03-13T04:51:58.704Z,977.35
2023-03-13T05:03:59.152Z,977.21
2023-03-13T05:15:59.638Z,977.20
2023-03-13T05:28:00.119Z,976.97
2023-03-13T05:40:00.509Z,976.90
2023-03-13T05:52:00.967Z,976.78
2023-03-13T06:04:01.614Z,976.62
2023-03-13T06:16:01.937Z,976.66
2023-03-13T06:28:02.320Z,976.56
2023-03-13T06:40:02.773Z,976.34
2023-03-13T06:52:03.209Z,976.43
2023-03-13T07:04:03.728Z,976.19
2023-03-13T07:16:04.132Z,976.15
2023-03-13T07:28:04.644Z,976.13
2023-03-13T07:40:05.051Z,976.01
2023-03-13T07:52:05.496Z,975.96
2023-03-13T08:04:05.955Z,976.03
2023-03-13T08:16:06.519Z,975.91
2023-03-13T08:28:06.856Z,975.72
2023-03-13T08:40:07.298Z,975.85
2023-03-13T08:52:07.739Z,975.74
2023-03-13T09:04:08.299Z,975.68
2023-03-13T09:16:08.699Z,975.70
2023-03-13T09:28:09.120Z,975.49
2023-03-13T09:40:09.546Z,975.27
2023-03-13T09:52:09.983Z,975.20
2023-03-13T10:04:10.453Z,975.12
2023-03-13T10:16:11.058Z,974.80
2023-03-13T10:28:11.357Z,974.75
2023-03-13T10:40:11.822Z,974.96
2023-03-13T10:52:12.257Z,974.99
2023-03-13T11:04:12.758Z,974.71
2023-03-13T11:16:13.204Z,974.58
2023-03-13T11:28:13.662Z,974.11
2023-03-13T11:40:14.079Z,973.98
2023-03-13T11:52:14.563Z,974.07
2023-03-13T12:04:15.054Z,973.83
2023-03-13T12:16:15.482Z,973.80
2023-03-13T12:28:15.960Z,973.85
2023-03-13T12:40:16.409Z,973.45
2023-03-13T12:52:16.793Z,973.53
2023-03-13T13:04:17.244Z,973.27
2023-03-13T13:16:17.799Z,973.00
2023-03-13T13:28:18.184Z,972.85
2023-03-13T13:40:18.668Z,972.71
2023-03-13T13:52:19.088Z,972.64
2023-03-13T14:04:19.517Z,972.59
2023-03-13T14:16:21.815Z,972.45
2023-03-13T14:28:20.451Z,972.38
2023-03-13T14:40:20.905Z,972.10
2023-03-13T14:52:21.352Z,971.83
2023-03-13T15:04:21.865Z,971.60
2023-03-13T15:16:22.281Z,971.73
2023-03-13T15:28:22.731Z,971.56
2023-03-13T15:40:23.172Z,971.56
2023-03-13T15:52:23.662Z,971.39
2023-03-13T16:04:24.089Z,971.09
2023-03-13T16:16:24.603Z,971.24
2023-03-13T16:28:24.987Z,971.00
2023-03-13T16:40:25.445Z,971.06
2023-03-13T16:52:25.886Z,971.13
2023-03-13T17:04:26.440Z,970.93
2023-03-13T17:16:26.822Z,970.93
2023-03-13T17:28:27.282Z,971.02
2023-03-13T17:40:27.705Z,970.98
2023-03-13T17:52:28.172Z,970.61
2023-03-13T18:04:28.683Z,970.16
2023-03-13T18:16:29.060Z,970.04
2023-03-13T18:28:29.502Z,969.87
2023-03-13T18:40:29.969Z,969.87
2023-03-13T18:52:30.424Z,969.77
2023-03-13T19:04:30.899Z,969.67
2023-03-13T19:16:31.414Z,969.28
2023-03-13T19:28:31.815Z,969.05
2023-03-13T19:40:32.240Z,968.64
2023-03-13T19:52:32.713Z,968.41
2023-03-13T20:04:33.170Z,968.18
2023-03-13T20:16:35.057Z,967.99
2023-03-13T20:28:34.046Z,967.77
2023-03-13T20:40:34.544Z,967.58
2023-03-13T20:52:34.954Z,967.55
2023-03-13T21:04:35.484Z,967.18
2023-03-13T21:16:35.969Z,967.00
2023-03-13T21:28:36.344Z,966.65
2023-03-13T21:40:36.780Z,966.33
2023-03-13T21:52:39.867Z,966.53
2023-03-13T22:04:37.678Z,966.25
2023-03-13T22:16:38.150Z,966.32
2023-03-13T22:28:38.557Z,966.02
2023-03-13T22:40:39.047Z,965.80
2023-03-13T22:52:39.470Z,965.44
2023-03-13T23:04:40.071Z,965.37
2023-03-13T23:16:40.409Z,965.26
2023-03-13T23:28:40.854Z,964.86
2023-03-13T23:40:41.306Z,964.73
2023-03-13T23:52:41.780Z,964.47
